createdAt,value
2022-10-18T00:01:23.395Z,102523.23
2022-10-18T00:03:53.414Z,102524.16
2022-10-18T00:06:23.478Z,102527.26
2022-10-18T00:08:53.393Z,102533.7
2022-10-18T00:11:23.776Z,102523.47
2022-10-18T00:13:55.451Z,102521.70000000001
2022-10-18T00:16:23.445Z,102519.58
2022-10-18T00:18:53.772Z,102517.76
2022-10-18T00:21:24.969Z,102518.74
2022-10-18T00:23:53.723Z,102518.57
2022-10-18T00:26:26.088Z,102526.48999999999
2022-10-18T00:28:55.896Z,102525.05000000002
2022-10-18T00:31:26.168Z,102524.18000000001
2022-10-18T00:33:56.302Z,102521.72
2022-10-18T00:36:24.468Z,102523.84
2022-10-18T00:38:53.444Z,102524.56999999999
2022-10-18T00:41:26.315Z,102525.37999999999
2022-10-18T00:43:57.689Z,102520.43000000001
2022-10-18T00:46:25.068Z,102521.75
2022-10-18T00:51:28.009Z,102525.44
2022-10-18T00:53:53.812Z,102528.93999999999
2022-10-18T00:56:24.118Z,102528.67000000001
2022-10-18T00:58:53.623Z,102523.23
2022-10-18T01:01:27.513Z,102521.95
2022-10-18T01:03:54.941Z,102522.68999999999
2022-10-18T01:06:25.083Z,102528.15000000001
2022-10-18T01:09:08.306Z,102535.43999999999
2022-10-18T01:14:04.996Z,102542.1
2022-10-18T01:16:29.841Z,102550.29
2022-10-18T01:18:57.724Z,102546.68999999999
2022-10-18T01:21:35.020Z,102546.61000000002
2022-10-18T01:24:13.246Z,102547.92
2022-10-18T01:26:37.427Z,102548.11
2022-10-18T01:29:03.081Z,102545.40999999999
2022-10-18T01:33:58.698Z,102535.51
2022-10-18T01:36:28.689Z,102535.47000000002
2022-10-18T01:38:57.111Z,102535.33
2022-10-18T01:43:57.494Z,102529.72
2022-10-18T01:46:25.344Z,102533.44
2022-10-18T01:48:54.324Z,102530.8
2022-10-18T01:53:54.016Z,102535.03
2022-10-18T01:56:31.592Z,102541.56
2022-10-18T01:59:02.293Z,102543.1
2022-10-18T02:01:32.549Z,102544.75
2022-10-18T02:03:58.370Z,102540.91
2022-10-18T02:06:28.816Z,102533.69
2022-10-18T02:09:02.014Z,102528.78
2022-10-18T02:11:25.485Z,102532.89
2022-10-18T02:13:58.481Z,102532.6
2022-10-18T02:16:28.806Z,102536.81999999999
2022-10-18T02:18:57.350Z,102532.02000000002
2022-10-18T02:21:24.786Z,102534.33
2022-10-18T02:23:54.945Z,102537.66
2022-10-18T02:26:23.887Z,102537.3
2022-10-18T02:28:54.325Z,102542.44000000002
2022-10-18T02:31:29.810Z,102545.70000000001
2022-10-18T02:33:57.233Z,102544.14
2022-10-18T02:36:27.891Z,102547.99
2022-10-18T02:38:58.618Z,102550.65
2022-10-18T02:41:24.875Z,102547.73
2022-10-18T02:43:53.468Z,102544.68
2022-10-18T02:46:24.058Z,102540.73000000001
2022-10-18T02:48:53.429Z,102538.06999999999
2022-10-18T02:51:24.223Z,102544.59
2022-10-18T02:53:53.443Z,102542.92
2022-10-18T02:56:23.462Z,102542.75
2022-10-18T02:58:53.756Z,102541.00000000001
2022-10-18T03:01:23.620Z,102544.08
2022-10-18T03:03:53.544Z,102546.49999999999
2022-10-18T03:06:23.498Z,102549.78000000001
2022-10-18T03:08:53.438Z,102551.29
2022-10-18T03:11:23.783Z,102552.44
2022-10-18T03:13:53.417Z,102548.01
2022-10-18T03:16:23.740Z,102549.04
2022-10-18T03:18:53.549Z,102550.45999999999
2022-10-18T03:21:23.442Z,102556.13
2022-10-18T03:23:53.575Z,102554.44
2022-10-18T03:26:23.516Z,102554.44
2022-10-18T03:28:53.580Z,102550.05000000002
2022-10-18T03:31:23.569Z,102547.25000000001
2022-10-18T03:33:53.649Z,102550.4
2022-10-18T03:36:23.694Z,102551.83
2022-10-18T03:38:53.443Z,102551.83
2022-10-18T03:41:23.563Z,102557.09
2022-10-18T03:43:53.530Z,102557.98
2022-10-18T03:46:23.708Z,102552.53
2022-10-18T03:48:53.654Z,102560.42
2022-10-18T03:51:23.558Z,102563.04000000001
2022-10-18T03:53:53.453Z,102573.62000000001
2022-10-18T03:56:23.690Z,102585.45
2022-10-18T03:58:53.542Z,102586.67
2022-10-18T04:01:23.587Z,102573.1
2022-10-18T04:03:53.574Z,102559.61
2022-10-18T04:06:23.529Z,102564.77
2022-10-18T04:08:54.615Z,102573.56
2022-10-18T04:11:23.461Z,102586.04000000001
2022-10-18T04:13:53.631Z,102589.72000000002
2022-10-18T04:16:24.077Z,102581.8
2022-10-18T04:18:53.661Z,102581.86
2022-10-18T04:21:23.730Z,102584.38
2022-10-18T04:23:53.518Z,102586.04000000001
2022-10-18T04:26:23.659Z,102590.81000000001
2022-10-18T04:28:53.606Z,102588.1
2022-10-18T04:31:23.517Z,102572.92
2022-10-18T04:33:53.983Z,102573.89
2022-10-18T04:36:23.510Z,102587.87
2022-10-18T04:38:53.650Z,102592.03
2022-10-18T04:41:23.764Z,102598.76999999999
2022-10-18T04:43:53.558Z,102594.53000000001
2022-10-18T04:46:23.526Z,102594.95999999999
2022-10-18T04:48:53.478Z,102595.91
2022-10-18T04:51:23.721Z,102600.79000000001
2022-10-18T04:53:53.552Z,102598.76999999999
2022-10-18T04:56:23.630Z,102590.75
2022-10-18T04:58:53.581Z,102585.03
2022-10-18T05:01:23.505Z,102588.57
2022-10-18T05:03:54.248Z,102586.89
2022-10-18T05:06:23.484Z,102590.31
2022-10-18T05:08:53.680Z,102594.31999999999
2022-10-18T05:11:23.632Z,102595.83
2022-10-18T05:13:53.486Z,102596.49999999999
2022-10-18T05:16:23.832Z,102596.51
2022-10-18T05:18:53.856Z,102597.53
2022-10-18T05:21:23.632Z,102595.84999999999
2022-10-18T05:23:54.305Z,102593.95
2022-10-18T05:26:23.623Z,102589.43
2022-10-18T05:28:53.650Z,102590.14
2022-10-18T05:31:23.787Z,102584.63999999998
2022-10-18T05:33:53.564Z,102585.12000000001
2022-10-18T05:36:25.115Z,102577.29
2022-10-18T05:43:53.833Z,102592.26000000001
2022-10-18T05:46:23.793Z,102582.5
2022-10-18T05:48:53.476Z,102584.03000000001
2022-10-18T05:51:23.984Z,102593.90000000001
2022-10-18T05:53:53.880Z,102602.73
2022-10-18T05:56:23.978Z,102608.59
2022-10-18T05:58:53.950Z,102608.90999999999
2022-10-18T06:01:23.553Z,102601.06000000001
2022-10-18T06:03:53.547Z,102605.98999999999
2022-10-18T06:06:23.775Z,102610.17
2022-10-18T06:08:53.635Z,102608.25
2022-10-18T06:11:24.197Z,102604.65
2022-10-18T06:18:55.319Z,102609.07999999999
2022-10-18T06:21:24.851Z,102623.21999999999
2022-10-18T06:23:55.174Z,102632.91999999998
2022-10-18T06:26:24.334Z,102630.32
2022-10-18T06:28:53.685Z,102628.52
2022-10-18T06:31:23.727Z,102636.6
2022-10-18T06:33:56.167Z,102653.09
2022-10-18T06:36:24.148Z,102653.96
2022-10-18T06:38:53.612Z,102638.82
2022-10-18T06:41:23.809Z,102642.04
2022-10-18T06:43:56.582Z,102652.65999999999
2022-10-18T06:51:23.740Z,102647.75
2022-10-18T06:54:13.085Z,102649.94999999998
2022-10-18T06:56:23.621Z,102659.58
2022-10-18T07:01:23.626Z,102665.87
2022-10-18T07:06:24.533Z,102653.22000000002
2022-10-18T07:08:53.745Z,102660.5
2022-10-18T07:11:26.015Z,102672.39
2022-10-18T07:13:59.793Z,102679.06
2022-10-18T07:16:23.526Z,102679.5
2022-10-18T07:18:54.069Z,102679.54
2022-10-18T07:21:25.507Z,102687.54
2022-10-18T07:23:53.740Z,102702.8
2022-10-18T07:26:26.292Z,102699.40999999999
2022-10-18T07:28:56.982Z,102686.28000000001
2022-10-18T07:31:24.474Z,102684.47000000002
2022-10-18T07:33:53.807Z,102698.27
2022-10-18T07:36:24.665Z,102701.56
2022-10-18T07:38:53.565Z,102698.45
2022-10-18T07:41:27.693Z,102700.05000000002
2022-10-18T07:43:53.852Z,102713.38
2022-10-18T07:46:23.855Z,102720.75
2022-10-18T07:48:54.709Z,102710.54999999999
2022-10-18T07:51:23.564Z,102710.56000000001
2022-10-18T07:53:53.757Z,102717.57
2022-10-18T07:56:24.477Z,102730.52
2022-10-18T07:58:55.282Z,102723.07
2022-10-18T08:01:24.735Z,102720.89000000001
2022-10-18T08:03:53.729Z,102725.16
2022-10-18T08:06:23.704Z,102729.15000000001
2022-10-18T08:08:53.811Z,102731.18
2022-10-18T08:11:24.877Z,102736.01000000001
2022-10-18T08:13:53.812Z,102747.42000000001
2022-10-18T08:16:25.608Z,102751.86000000002
2022-10-18T08:18:56.192Z,102754.56999999999
2022-10-18T08:21:24.210Z,102751.75
2022-10-18T08:23:54.106Z,102761.34
2022-10-18T08:26:23.923Z,102758.44
2022-10-18T08:29:03.643Z,102754.85
2022-10-18T08:31:23.795Z,102761.85
2022-10-18T08:33:54.252Z,102764.58
2022-10-18T08:36:24.146Z,102761.15
2022-10-18T08:38:53.718Z,102755.32
2022-10-18T08:41:34.495Z,102749.01
2022-10-18T08:44:01.112Z,102762.28000000001
2022-10-18T08:46:24.416Z,102768.90000000001
2022-10-18T08:48:55.662Z,102748.84999999999
2022-10-18T08:51:28.759Z,102758.58
2022-10-18T08:54:02.803Z,102774.94999999998
2022-10-18T08:56:25.071Z,102767.51999999999
2022-10-18T08:58:53.779Z,102757.34999999999
2022-10-18T09:01:37.579Z,102761.72999999998
2022-10-18T09:04:07.176Z,102763.05
2022-10-18T09:06:30.636Z,102762.32
2022-10-18T09:09:05.611Z,102765.77
2022-10-18T09:16:30.211Z,102769.18000000001
2022-10-18T09:19:05.192Z,102764.45000000001
2022-10-18T09:21:36.013Z,102765.96999999999
2022-10-18T09:24:04.469Z,102767.60999999999
2022-10-18T09:26:24.756Z,102769.3
2022-10-18T09:29:07.832Z,102768.87999999999
2022-10-18T09:31:33.423Z,102771.02
2022-10-18T09:33:58.565Z,102776.29
2022-10-18T09:36:32.629Z,102778.33
2022-10-18T09:39:00.389Z,102779.79000000001
2022-10-18T09:41:25.888Z,102781.09999999999
2022-10-18T09:43:57.925Z,102786.02
2022-10-18T09:46:29.394Z,102789.05
2022-10-18T09:48:59.398Z,102794.3
2022-10-18T09:51:28.000Z,102792.85
2022-10-18T09:54:04.939Z,102799.43000000001
2022-10-18T09:56:28.946Z,102799.05000000002
2022-10-18T09:58:53.629Z,102796.77999999998
2022-10-18T10:01:25.546Z,102798.76999999999
2022-10-18T10:03:54.011Z,102807.97
2022-10-18T10:06:25.982Z,102811.76000000001
2022-10-18T10:08:58.539Z,102807.09999999999
2022-10-18T10:11:31.630Z,102814.15999999999
2022-10-18T10:13:57.119Z,102821.23999999999
2022-10-18T10:16:26.110Z,102820.76
2022-10-18T10:18:53.843Z,102824.12999999999
2022-10-18T10:21:23.973Z,102830.08
2022-10-18T10:26:27.322Z,102827.09999999999
2022-10-18T10:28:54.195Z,102825.77000000002
2022-10-18T10:31:27.489Z,102829.33
2022-10-18T10:34:03.810Z,102840.27
2022-10-18T10:36:23.911Z,102836.77
2022-10-18T10:39:05.372Z,102844.68999999999
2022-10-18T10:41:23.868Z,102839.43999999999
2022-10-18T10:43:53.697Z,102841.02
2022-10-18T10:46:33.578Z,102842.40999999999
2022-10-18T10:49:09.626Z,102844.76
2022-10-18T10:51:29.473Z,102850.06000000001
2022-10-18T10:53:59.158Z,102848.40999999999
2022-10-18T10:56:26.447Z,102851.51000000001
2022-10-18T10:58:55.285Z,102855.09
2022-10-18T11:01:29.713Z,102857.34999999999
2022-10-18T11:03:57.663Z,102857.93000000001
2022-10-18T11:06:39.134Z,102859.90999999999
2022-10-18T11:08:56.575Z,102858.73999999999
2022-10-18T11:11:30.805Z,102860.35999999999
2022-10-18T11:14:21.164Z,102857.46999999999
2022-10-18T11:16:32.092Z,102864.7
2022-10-18T11:18:56.599Z,102864.33
2022-10-18T11:21:27.338Z,102865.58
2022-10-18T11:23:54.489Z,102870.48
2022-10-18T11:26:42.160Z,102869.54000000001
2022-10-18T11:29:08.293Z,102869.02
2022-10-18T11:31:29.632Z,102873.03
2022-10-18T11:34:12.571Z,102876.07
2022-10-18T11:36:30.588Z,102867.32999999999
2022-10-18T11:38:59.971Z,102871.23999999999
2022-10-18T11:41:30.700Z,102874.45
2022-10-18T11:44:02.743Z,102875.43000000001
2022-10-18T11:46:36.881Z,102873.89
2022-10-18T11:49:07.729Z,102872.97000000002
2022-10-18T11:51:44.736Z,102878.91
2022-10-18T11:54:05.996Z,102877.69
2022-10-18T11:56:31.314Z,102871.67
2022-10-18T11:59:10.251Z,102872.09
2022-10-18T12:01:32.456Z,102869.68
2022-10-18T12:04:01.166Z,102869.26000000001
2022-10-18T12:06:29.694Z,102868.51
2022-10-18T12:08:58.515Z,102869.84
2022-10-18T12:11:27.396Z,102865.55
2022-10-18T12:13:58.026Z,102865.36000000002
2022-10-18T12:16:49.447Z,102859.89
2022-10-18T12:18:56.973Z,102860.01000000001
2022-10-18T12:21:28.315Z,102865.22
2022-10-18T12:23:57.183Z,102865.87
2022-10-18T12:26:25.990Z,102868.04
2022-10-18T12:29:05.289Z,102865.64000000001
2022-10-18T12:31:27.560Z,102860.75
2022-10-18T12:33:59.009Z,102857.85
2022-10-18T12:36:40.656Z,102853.97
2022-10-18T12:38:58.732Z,102852.56
2022-10-18T12:41:25.992Z,102858.18999999999
2022-10-18T12:44:00.067Z,102854.04000000001
2022-10-18T12:46:24.191Z,102865.69
2022-10-18T12:49:02.764Z,102857.19999999998
2022-10-18T12:51:24.097Z,102861.43999999999
2022-10-18T12:54:06.150Z,102863.23999999999
2022-10-18T12:56:36.947Z,102863.28000000001
2022-10-18T12:59:13.655Z,102864.23
2022-10-18T13:01:24.367Z,102861.35999999999
2022-10-18T13:03:55.681Z,102860.53
2022-10-18T13:06:24.409Z,102858.35999999999
2022-10-18T13:09:13.483Z,102857.97
2022-10-18T13:11:29.857Z,102859.79
2022-10-18T13:14:09.831Z,102857.24
2022-10-18T13:16:35.504Z,102860.69
2022-10-18T13:18:57.759Z,102858.42
2022-10-18T13:21:34.091Z,102861.49
2022-10-18T13:24:11.264Z,102860.51
2022-10-18T13:26:31.031Z,102855.32
2022-10-18T13:29:04.104Z,102856.09
2022-10-18T13:31:29.837Z,102855.65
2022-10-18T13:33:53.861Z,102854.59000000001
2022-10-18T13:36:25.151Z,102852.81
2022-10-18T13:39:05.004Z,102855.26
2022-10-18T13:41:25.915Z,102854.37999999999
2022-10-18T13:44:07.767Z,102856.52
2022-10-18T13:46:35.399Z,102856.32
2022-10-18T13:48:58.753Z,102856.87000000001
2022-10-18T13:51:34.956Z,102857.97
2022-10-18T13:54:01.656Z,102861.1
2022-10-18T13:56:37.719Z,102858.09
2022-10-18T13:59:15.244Z,102864.81000000001
2022-10-18T14:01:35.041Z,102865.5
2022-10-18T14:04:13.649Z,102863.29000000001
2022-10-18T14:06:26.634Z,102861.9
2022-10-18T14:09:03.376Z,102868.53000000001
2022-10-18T14:11:32.786Z,102870.95
2022-10-18T14:13:57.809Z,102873.12
2022-10-18T14:16:31.172Z,102867.63
2022-10-18T14:19:06.545Z,102868.53000000001
2022-10-18T14:21:31.609Z,102870.54000000001
2022-10-18T14:23:54.118Z,102870.43000000001
2022-10-18T14:26:27.711Z,102874.34000000001
2022-10-18T14:29:03.275Z,102877.10999999999
2022-10-18T14:31:23.857Z,102877.26
2022-10-18T14:33:57.924Z,102876.65999999999
2022-10-18T14:36:26.129Z,102879.45999999999
2022-10-18T14:38:55.997Z,102880.54999999999
2022-10-18T14:41:25.344Z,102881.81
2022-10-18T14:44:11.419Z,102885.63999999998
2022-10-18T14:46:28.016Z,102881.04000000001
2022-10-18T14:48:55.444Z,102883.81
2022-10-18T14:51:25.158Z,102883.22
2022-10-18T14:53:56.407Z,102884.09
2022-10-18T14:56:28.116Z,102882.76000000001
2022-10-18T14:58:55.798Z,102880.8
2022-10-18T15:01:26.797Z,102882.59000000001
2022-10-18T15:03:57.165Z,102878.27
2022-10-18T15:06:24.601Z,102880.93
2022-10-18T15:08:57.145Z,102877.45
2022-10-18T15:11:24.880Z,102872.93999999999
2022-10-18T15:13:56.441Z,102874.54000000001
2022-10-18T15:16:27.238Z,102880.45999999999
2022-10-18T15:19:04.075Z,102878.65
2022-10-18T15:21:24.730Z,102880.59000000001
2022-10-18T15:23:54.652Z,102876.54
2022-10-18T15:26:28.559Z,102877.17
2022-10-18T15:29:00.498Z,102879.09
2022-10-18T15:31:26.222Z,102884.06
2022-10-18T15:34:07.738Z,102879.5
2022-10-18T15:36:28.222Z,102884.44
2022-10-18T15:39:04.090Z,102877.61
2022-10-18T15:41:35.648Z,102880.18999999999
2022-10-18T15:44:09.048Z,102881.01
2022-10-18T15:46:31.719Z,102876.68000000001
2022-10-18T15:49:08.944Z,102878.81
2022-10-18T15:56:29.067Z,102878.23000000001
2022-10-18T15:58:56.005Z,102874.72
2022-10-18T16:01:32.825Z,102872.92
2022-10-18T16:06:23.760Z,102872.02
2022-10-18T16:08:53.940Z,102873.28
2022-10-18T16:11:25.429Z,102873.1
2022-10-18T16:13:56.497Z,102868.74
2022-10-18T16:16:26.456Z,102867.48
2022-10-18T16:18:54.545Z,102872.83
2022-10-18T16:21:26.970Z,102883.75000000001
2022-10-18T16:23:54.126Z,102883.89
2022-10-18T16:26:25.878Z,102884.77
2022-10-18T16:28:54.849Z,102891.74
2022-10-18T16:31:25.983Z,102895.68
2022-10-18T16:33:55.028Z,102899.90000000001
2022-10-18T16:36:25.190Z,102898.65
2022-10-18T16:38:54.501Z,102903.58000000002
2022-10-18T16:41:24.242Z,102907.31000000001
2022-10-18T16:43:53.853Z,102907.41
2022-10-18T16:46:26.487Z,102909.67000000001
2022-10-18T16:48:55.161Z,102913.92000000001
2022-10-18T16:51:24.374Z,102914.72000000002
2022-10-18T16:53:54.610Z,102919.71
2022-10-18T16:56:27.026Z,102921.11
2022-10-18T16:58:53.944Z,102924.05000000002
2022-10-18T17:01:24.712Z,102924.17
2022-10-18T17:03:54.361Z,102923.56
2022-10-18T17:06:26.353Z,102928.41
2022-10-18T17:08:55.394Z,102927.22000000002
2022-10-18T17:11:26.719Z,102927.81999999999
2022-10-18T17:18:54.746Z,102933.26
2022-10-18T17:21:25.460Z,102934.11000000002
2022-10-18T17:23:54.287Z,102933.24
2022-10-18T17:26:28.823Z,102938.01000000001
2022-10-18T17:28:56.695Z,102940.98
2022-10-18T17:31:23.881Z,102940.83
2022-10-18T17:36:24.203Z,102952.82999999999
2022-10-18T17:38:54.869Z,102956.87000000001
2022-10-18T17:41:24.086Z,102955.2
2022-10-18T17:43:54.069Z,102955.7
2022-10-18T17:46:23.902Z,102957.48000000001
2022-10-18T17:48:54.391Z,102966.83
2022-10-18T17:51:23.814Z,102971.8
2022-10-18T17:53:53.957Z,102967.68999999999
2022-10-18T17:58:53.839Z,102968.4
2022-10-18T18:01:24.384Z,102971.94
2022-10-18T18:03:55.742Z,102971.29
2022-10-18T18:06:29.905Z,102968.48999999999
2022-10-18T18:08:53.837Z,102967.72
2022-10-18T18:11:24.544Z,102968.48
2022-10-18T18:13:54.539Z,102963.12000000001
2022-10-18T18:16:25.995Z,102969.65
2022-10-18T18:18:55.573Z,102975.51000000001
2022-10-18T18:21:25.596Z,102978.08
2022-10-18T18:23:54.702Z,102976.77
2022-10-18T18:26:24.670Z,102973.56
2022-10-18T18:28:53.958Z,102969.3
2022-10-18T18:31:24.831Z,102974.15000000001
2022-10-18T18:33:56.256Z,102973.65999999999
2022-10-18T18:36:28.037Z,102970.48
2022-10-18T18:46:25.706Z,102986.72999999998
2022-10-18T18:48:56.164Z,102981.43
2022-10-18T18:51:24.560Z,102986.45
2022-10-18T19:01:26.640Z,102990.81000000001
2022-10-18T19:03:55.944Z,102991.64000000001
2022-10-18T19:06:25.859Z,102988.22
2022-10-18T19:11:23.853Z,102986.13
2022-10-18T19:13:54.481Z,102982.87
2022-10-18T19:16:26.390Z,102984.94
2022-10-18T19:18:57.846Z,102977.16
2022-10-18T19:21:26.776Z,102975.2
2022-10-18T19:23:55.620Z,102974.37999999999
2022-10-18T19:26:28.661Z,102966.15999999999
2022-10-18T19:28:54.494Z,102968.82
2022-10-18T19:31:23.833Z,102970.64
2022-10-18T19:33:59.009Z,102973.68
2022-10-18T19:36:23.963Z,102969.53000000001
2022-10-18T19:43:54.722Z,102979.0
2022-10-18T19:48:54.221Z,102976.68000000001
2022-10-18T19:51:27.950Z,102977.97
2022-10-18T19:53:56.791Z,102985.21
2022-10-18T19:58:54.883Z,102987.01000000001
2022-10-18T20:01:25.392Z,102988.98999999999
2022-10-18T20:06:24.164Z,102993.95999999999
2022-10-18T20:08:55.220Z,102996.55
2022-10-18T20:11:27.490Z,103002.44
2022-10-18T20:13:55.093Z,102998.68
2022-10-18T20:16:28.328Z,102999.48
2022-10-18T20:18:54.573Z,103006.14
2022-10-18T20:23:54.560Z,102999.89
2022-10-18T20:28:57.126Z,102992.48
2022-10-18T20:33:55.483Z,102997.02
2022-10-18T20:36:25.518Z,102998.36
2022-10-18T20:38:54.381Z,102994.95999999999
2022-10-18T20:41:26.112Z,102993.26000000001
2022-10-18T20:43:55.815Z,103000.21999999999
2022-10-18T20:46:25.215Z,102999.56
2022-10-18T20:48:54.502Z,102992.15
2022-10-18T20:51:24.450Z,102990.72000000002
2022-10-18T20:53:54.191Z,102988.77
2022-10-18T20:56:26.308Z,102990.7
2022-10-18T20:58:55.858Z,102994.02
2022-10-18T21:01:26.288Z,102990.72000000002
2022-10-18T21:03:55.840Z,103000.11
2022-10-18T21:06:25.740Z,102998.78000000001
2022-10-18T21:08:54.936Z,103001.61
2022-10-18T21:11:25.481Z,103001.21999999999
2022-10-18T21:13:56.516Z,103006.42
2022-10-18T21:16:24.866Z,103002.53
2022-10-18T21:18:54.187Z,103005.51000000001
2022-10-18T21:21:24.429Z,103009.09
2022-10-18T21:23:54.155Z,103011.17
2022-10-18T21:26:27.667Z,103009.99999999999
2022-10-18T21:28:57.659Z,103018.96999999999
2022-10-18T21:31:25.763Z,103019.68
2022-10-18T21:33:56.098Z,103016.46
2022-10-18T21:36:25.419Z,103010.90999999999
2022-10-18T21:38:54.075Z,103012.06999999999
2022-10-18T21:41:24.050Z,103006.18
2022-10-18T21:43:54.313Z,103007.6
2022-10-18T21:46:26.078Z,103011.39
2022-10-18T21:48:55.559Z,103007.73999999999
2022-10-18T21:51:26.243Z,103005.77
2022-10-18T21:53:55.719Z,103008.24
2022-10-18T21:56:26.179Z,103000.01
2022-10-18T21:58:54.591Z,102999.51000000001
2022-10-18T22:01:26.245Z,102997.19
2022-10-18T22:03:55.787Z,102995.39
2022-10-18T22:06:25.768Z,102999.82
2022-10-18T22:08:55.368Z,103000.81999999999
2022-10-18T22:11:26.120Z,102999.93
2022-10-18T22:13:54.642Z,102996.53000000001
2022-10-18T22:16:24.698Z,102994.02
2022-10-18T22:18:57.342Z,102988.51
2022-10-18T22:21:24.239Z,102987.95
2022-10-18T22:23:56.670Z,102987.43
2022-10-18T22:26:26.578Z,102986.26999999999
2022-10-18T22:28:55.965Z,102985.34
2022-10-18T22:31:26.640Z,102985.70999999999
2022-10-18T22:33:55.345Z,102983.27999999998
2022-10-18T22:36:24.806Z,102984.58
2022-10-18T22:38:54.525Z,102982.91999999998
2022-10-18T22:41:24.501Z,102984.27999999998
2022-10-18T22:43:55.549Z,102984.94
2022-10-18T22:53:54.045Z,102984.03000000001
2022-10-18T22:56:24.368Z,102982.6
2022-10-18T23:01:24.351Z,102981.15000000001
2022-10-18T23:06:26.142Z,102975.81999999999
2022-10-18T23:11:25.118Z,102967.87
2022-10-18T23:16:24.354Z,102965.28000000001
2022-10-18T23:18:55.695Z,102966.08000000002
2022-10-18T23:21:27.203Z,102965.60999999999
2022-10-18T23:26:26.432Z,102963.15
2022-10-18T23:28:54.771Z,102966.13
2022-10-18T23:31:26.988Z,102962.57
2022-10-18T23:33:55.537Z,102967.37000000001
2022-10-18T23:36:25.100Z,102963.53
2022-10-18T23:38:54.557Z,102961.85
2022-10-18T23:41:25.098Z,102965.32999999999
2022-10-18T23:43:54.844Z,102968.54000000001
2022-10-18T23:46:24.307Z,102965.06
2022-10-18T23:48:54.192Z,102968.01000000001
2022-10-18T23:51:24.098Z,102973.34000000001
2022-10-18T23:53:53.994Z,102973.43000000001
2022-10-18T23:56:24.440Z,102973.34000000001
2022-10-18T23:58:55.303Z,102974.21999999999
